首页
METAR-TAF:

METAR-TAF

机场 :

Waukegan Regional Airport

Waukegan, 伊利诺伊州, 美国

纬度: 42-25N, 经度: 087-52W, 海拔: 222米

当前天气观测

该预报发布于19分钟前的07:55 UTC
风速4节,风向多变
温度 -4°C
湿度 74%
气压 1011 hPa
能見度: 8.0公里
阴天层高于2000英尺
小雪

METAR: KUGN 100755Z AUTO VRB04KT 5SM -SN OVC020 M04/M08 A2985 RMK AO2 SNB11 SLP118 P0000 T10391083

时间: 02:14 (08:14 UTC)


TAF: 丢失

超过4000个机场的气象观测和天气预报(METAR&TAF报告)。

可查询的气象台以黄色和红色小点在地图上表示。

将鼠标移到小点上方,可查看气象台名称。

然后点击查看天气观测和预报。

如需切换地图:点击带黑十字的绿色按钮放大地图;点击带横线的绿色按钮缩小地图;或者点击绿色箭头查看邻近地区的地图。


METAR-TAF: